sensor_id;sensor_type;location;lat;lon;timestamp;P1;durP1;ratioP1;P2;durP2;ratioP2
51495;SDS011;37572;52.094;4.870;2023-05-10T00:01:39;72.95;;;27.90;;
51495;SDS011;37572;52.094;4.870;2023-05-10T00:04:05;75.65;;;28.45;;
51495;SDS011;37572;52.094;4.870;2023-05-10T00:06:31;78.15;;;28.27;;
51495;SDS011;37572;52.094;4.870;2023-05-10T00:08:56;77.60;;;29.58;;
51495;SDS011;37572;52.094;4.870;2023-05-10T00:11:22;72.38;;;26.83;;
51495;SDS011;37572;52.094;4.870;2023-05-10T00:13:47;78.65;;;27.65;;
51495;SDS011;37572;52.094;4.870;2023-05-10T00:16:12;75.60;;;28.87;;
51495;SDS011;37572;52.094;4.870;2023-05-10T00:18:40;87.05;;;30.23;;
51495;SDS011;37572;52.094;4.870;2023-05-10T00:21:05;82.20;;;28.25;;
51495;SDS011;37572;52.094;4.870;2023-05-10T00:23:31;82.13;;;30.95;;
51495;SDS011;37572;52.094;4.870;2023-05-10T00:25:57;73.90;;;27.35;;
51495;SDS011;37572;52.094;4.870;2023-05-10T00:28:22;85.85;;;30.80;;
51495;SDS011;37572;52.094;4.870;2023-05-10T00:30:48;84.15;;;29.55;;
51495;SDS011;37572;52.094;4.870;2023-05-10T00:33:13;72.57;;;28.98;;
51495;SDS011;37572;52.094;4.870;2023-05-10T00:35:39;81.75;;;28.17;;
51495;SDS011;37572;52.094;4.870;2023-05-10T00:38:04;80.73;;;29.47;;
51495;SDS011;37572;52.094;4.870;2023-05-10T00:40:29;77.87;;;27.83;;
51495;SDS011;37572;52.094;4.870;2023-05-10T00:42:55;85.43;;;27.92;;
51495;SDS011;37572;52.094;4.870;2023-05-10T00:45:21;86.53;;;29.02;;
51495;SDS011;37572;52.094;4.870;2023-05-10T00:47:46;76.55;;;27.13;;
51495;SDS011;37572;52.094;4.870;2023-05-10T00:50:12;77.20;;;27.90;;
51495;SDS011;37572;52.094;4.870;2023-05-10T00:52:38;84.40;;;27.73;;
51495;SDS011;37572;52.094;4.870;2023-05-10T00:55:04;93.07;;;29.38;;
51495;SDS011;37572;52.094;4.870;2023-05-10T00:57:30;92.20;;;29.33;;
51495;SDS011;37572;52.094;4.870;2023-05-10T00:59:56;90.30;;;29.63;;
51495;SDS011;37572;52.094;4.870;2023-05-10T01:02:22;85.57;;;27.63;;
51495;SDS011;37572;52.094;4.870;2023-05-10T01:04:48;88.17;;;28.53;;
51495;SDS011;37572;52.094;4.870;2023-05-10T01:07:14;83.10;;;27.42;;
51495;SDS011;37572;52.094;4.870;2023-05-10T01:09:39;85.57;;;26.80;;
51495;SDS011;37572;52.094;4.870;2023-05-10T01:12:05;98.18;;;29.30;;
51495;SDS011;37572;52.094;4.870;2023-05-10T01:14:32;95.75;;;27.70;;
51495;SDS011;37572;52.094;4.870;2023-05-10T01:16:58;93.10;;;30.08;;
51495;SDS011;37572;52.094;4.870;2023-05-10T01:19:26;92.03;;;28.23;;
51495;SDS011;37572;52.094;4.870;2023-05-10T01:22:08;95.35;;;29.20;;
51495;SDS011;37572;52.094;4.870;2023-05-10T01:25:10;99.35;;;28.92;;
51495;SDS011;37572;52.094;4.870;2023-05-10T01:27:48;88.88;;;28.10;;
51495;SDS011;37572;52.094;4.870;2023-05-10T01:36:08;99.40;;;27.85;;
51495;SDS011;37572;52.094;4.870;2023-05-10T01:38:50;94.35;;;28.25;;
51495;SDS011;37572;52.094;4.870;2023-05-10T01:41:35;102.72;;;28.65;;
51495;SDS011;37572;52.094;4.870;2023-05-10T01:44:07;81.90;;;25.65;;
51495;SDS011;37572;52.094;4.870;2023-05-10T01:46:37;82.80;;;25.20;;
51495;SDS011;37572;52.094;4.870;2023-05-10T01:49:21;87.30;;;26.60;;
51495;SDS011;37572;52.094;4.870;2023-05-10T01:51:52;80.93;;;27.48;;
51495;SDS011;37572;52.094;4.870;2023-05-10T01:54:22;93.78;;;30.25;;
51495;SDS011;37572;52.094;4.870;2023-05-10T01:56:50;88.93;;;26.80;;
51495;SDS011;37572;52.094;4.870;2023-05-10T01:59:23;91.20;;;28.75;;
51495;SDS011;37572;52.094;4.870;2023-05-10T02:01:54;83.40;;;28.35;;
51495;SDS011;37572;52.094;4.870;2023-05-10T02:04:23;82.43;;;29.45;;
51495;SDS011;37572;52.094;4.870;2023-05-10T02:06:50;83.82;;;28.85;;
51495;SDS011;37572;52.094;4.870;2023-05-10T02:09:17;80.32;;;27.88;;
51495;SDS011;37572;52.094;4.870;2023-05-10T02:11:45;76.45;;;25.50;;
51495;SDS011;37572;52.094;4.870;2023-05-10T02:14:13;85.70;;;27.13;;
51495;SDS011;37572;52.094;4.870;2023-05-10T02:16:40;82.47;;;27.05;;
51495;SDS011;37572;52.094;4.870;2023-05-10T02:19:07;99.68;;;33.25;;
51495;SDS011;37572;52.094;4.870;2023-05-10T02:21:33;86.22;;;27.83;;
51495;SDS011;37572;52.094;4.870;2023-05-10T02:24:01;92.88;;;29.02;;
51495;SDS011;37572;52.094;4.870;2023-05-10T02:26:28;80.65;;;27.58;;
51495;SDS011;37572;52.094;4.870;2023-05-10T02:28:56;75.88;;;27.60;;
51495;SDS011;37572;52.094;4.870;2023-05-10T02:31:23;67.40;;;23.40;;
51495;SDS011;37572;52.094;4.870;2023-05-10T02:33:49;76.15;;;24.63;;
51495;SDS011;37572;52.094;4.870;2023-05-10T02:36:16;98.45;;;28.80;;
51495;SDS011;37572;52.094;4.870;2023-05-10T02:38:42;104.35;;;30.92;;
51495;SDS011;37572;52.094;4.870;2023-05-10T02:41:09;89.25;;;27.33;;
51495;SDS011;37572;52.094;4.870;2023-05-10T02:43:36;93.03;;;27.58;;
51495;SDS011;37572;52.094;4.870;2023-05-10T02:46:04;82.82;;;25.70;;
51495;SDS011;37572;52.094;4.870;2023-05-10T02:48:30;82.67;;;23.87;;
51495;SDS011;37572;52.094;4.870;2023-05-10T02:50:56;87.40;;;25.73;;
51495;SDS011;37572;52.094;4.870;2023-05-10T02:53:32;81.88;;;24.60;;
51495;SDS011;37572;52.094;4.870;2023-05-10T02:58:28;86.22;;;26.65;;
51495;SDS011;37572;52.094;4.870;2023-05-10T03:00:54;85.57;;;26.52;;
51495;SDS011;37572;52.094;4.870;2023-05-10T03:03:19;86.25;;;26.90;;
51495;SDS011;37572;52.094;4.870;2023-05-10T03:05:44;94.20;;;28.48;;
51495;SDS011;37572;52.094;4.870;2023-05-10T03:08:10;85.22;;;28.58;;
51495;SDS011;37572;52.094;4.870;2023-05-10T03:10:38;98.18;;;31.88;;
51495;SDS011;37572;52.094;4.870;2023-05-10T03:13:23;94.53;;;33.47;;
51495;SDS011;37572;52.094;4.870;2023-05-10T03:18:37;82.25;;;32.15;;
51495;SDS011;37572;52.094;4.870;2023-05-10T03:21:10;77.88;;;30.45;;
51495;SDS011;37572;52.094;4.870;2023-05-10T03:23:41;88.63;;;34.95;;
51495;SDS011;37572;52.094;4.870;2023-05-10T03:26:12;75.82;;;30.67;;
51495;SDS011;37572;52.094;4.870;2023-05-10T03:28:48;74.05;;;32.33;;
51495;SDS011;37572;52.094;4.870;2023-05-10T03:31:14;80.22;;;31.58;;
51495;SDS011;37572;52.094;4.870;2023-05-10T03:33:49;80.68;;;30.27;;
51495;SDS011;37572;52.094;4.870;2023-05-10T03:36:15;84.63;;;33.55;;
51495;SDS011;37572;52.094;4.870;2023-05-10T03:38:41;79.85;;;31.83;;
51495;SDS011;37572;52.094;4.870;2023-05-10T03:41:06;81.80;;;32.42;;
51495;SDS011;37572;52.094;4.870;2023-05-10T03:43:32;85.28;;;34.45;;
51495;SDS011;37572;52.094;4.870;2023-05-10T03:45:57;79.38;;;30.65;;
51495;SDS011;37572;52.094;4.870;2023-05-10T03:48:22;78.03;;;31.03;;
51495;SDS011;37572;52.094;4.870;2023-05-10T03:50:48;72.82;;;30.98;;
51495;SDS011;37572;52.094;4.870;2023-05-10T03:53:14;72.10;;;28.52;;
51495;SDS011;37572;52.094;4.870;2023-05-10T03:55:40;75.72;;;33.88;;
51495;SDS011;37572;52.094;4.870;2023-05-10T03:58:05;76.53;;;31.50;;
51495;SDS011;37572;52.094;4.870;2023-05-10T04:00:30;78.03;;;34.35;;
51495;SDS011;37572;52.094;4.870;2023-05-10T04:02:56;70.75;;;32.88;;
51495;SDS011;37572;52.094;4.870;2023-05-10T04:05:21;73.80;;;31.08;;
51495;SDS011;37572;52.094;4.870;2023-05-10T04:07:47;74.50;;;29.45;;
51495;SDS011;37572;52.094;4.870;2023-05-10T04:10:14;78.18;;;29.38;;
51495;SDS011;37572;52.094;4.870;2023-05-10T04:12:41;60.75;;;23.55;;
51495;SDS011;37572;52.094;4.870;2023-05-10T04:15:06;64.20;;;26.35;;
51495;SDS011;37572;52.094;4.870;2023-05-10T04:17:32;58.45;;;26.52;;
51495;SDS011;37572;52.094;4.870;2023-05-10T04:19:58;74.47;;;30.20;;
51495;SDS011;37572;52.094;4.870;2023-05-10T04:22:23;66.57;;;25.57;;
51495;SDS011;37572;52.094;4.870;2023-05-10T04:24:48;83.07;;;28.83;;
51495;SDS011;37572;52.094;4.870;2023-05-10T04:27:14;65.43;;;26.30;;
51495;SDS011;37572;52.094;4.870;2023-05-10T04:29:39;72.57;;;26.97;;
51495;SDS011;37572;52.094;4.870;2023-05-10T04:32:04;68.30;;;26.13;;
51495;SDS011;37572;52.094;4.870;2023-05-10T04:34:30;70.80;;;25.73;;
51495;SDS011;37572;52.094;4.870;2023-05-10T04:36:55;90.38;;;30.50;;
51495;SDS011;37572;52.094;4.870;2023-05-10T04:39:20;68.80;;;25.53;;
51495;SDS011;37572;52.094;4.870;2023-05-10T04:41:46;66.78;;;26.13;;
51495;SDS011;37572;52.094;4.870;2023-05-10T04:44:11;78.60;;;28.65;;
51495;SDS011;37572;52.094;4.870;2023-05-10T04:46:36;72.35;;;26.83;;
51495;SDS011;37572;52.094;4.870;2023-05-10T04:49:02;73.88;;;28.50;;
51495;SDS011;37572;52.094;4.870;2023-05-10T04:51:27;74.27;;;27.77;;
51495;SDS011;37572;52.094;4.870;2023-05-10T04:53:52;77.00;;;29.67;;
51495;SDS011;37572;52.094;4.870;2023-05-10T04:56:17;73.17;;;28.73;;
51495;SDS011;37572;52.094;4.870;2023-05-10T04:58:43;56.77;;;24.50;;
51495;SDS011;37572;52.094;4.870;2023-05-10T05:01:08;54.70;;;24.55;;
51495;SDS011;37572;52.094;4.870;2023-05-10T05:03:35;53.35;;;25.27;;
51495;SDS011;37572;52.094;4.870;2023-05-10T05:06:01;53.90;;;23.60;;
51495;SDS011;37572;52.094;4.870;2023-05-10T05:08:26;56.88;;;24.15;;
51495;SDS011;37572;52.094;4.870;2023-05-10T05:10:52;48.20;;;21.70;;
51495;SDS011;37572;52.094;4.870;2023-05-10T05:13:17;52.45;;;20.80;;
51495;SDS011;37572;52.094;4.870;2023-05-10T05:15:43;48.33;;;21.00;;
51495;SDS011;37572;52.094;4.870;2023-05-10T05:18:08;37.37;;;15.93;;
51495;SDS011;37572;52.094;4.870;2023-05-10T05:20:34;39.17;;;16.00;;
51495;SDS011;37572;52.094;4.870;2023-05-10T05:22:59;34.15;;;14.52;;
51495;SDS011;37572;52.094;4.870;2023-05-10T05:25:25;34.17;;;12.80;;
51495;SDS011;37572;52.094;4.870;2023-05-10T05:27:50;28.88;;;12.20;;
51495;SDS011;37572;52.094;4.870;2023-05-10T05:30:15;33.13;;;13.70;;
51495;SDS011;37572;52.094;4.870;2023-05-10T05:32:41;28.70;;;11.07;;
51495;SDS011;37572;52.094;4.870;2023-05-10T05:35:06;33.43;;;13.10;;
51495;SDS011;37572;52.094;4.870;2023-05-10T05:37:32;28.95;;;11.40;;
51495;SDS011;37572;52.094;4.870;2023-05-10T05:39:57;37.38;;;13.85;;
51495;SDS011;37572;52.094;4.870;2023-05-10T05:42:22;31.10;;;13.27;;
51495;SDS011;37572;52.094;4.870;2023-05-10T05:44:48;36.33;;;14.70;;
51495;SDS011;37572;52.094;4.870;2023-05-10T05:47:13;33.30;;;14.40;;
51495;SDS011;37572;52.094;4.870;2023-05-10T05:49:38;34.70;;;13.43;;
51495;SDS011;37572;52.094;4.870;2023-05-10T05:52:04;28.15;;;11.57;;
51495;SDS011;37572;52.094;4.870;2023-05-10T05:54:30;29.70;;;11.38;;
51495;SDS011;37572;52.094;4.870;2023-05-10T05:56:56;24.48;;;12.43;;
51495;SDS011;37572;52.094;4.870;2023-05-10T05:59:22;24.00;;;10.38;;
51495;SDS011;37572;52.094;4.870;2023-05-10T06:01:48;24.52;;;10.25;;
51495;SDS011;37572;52.094;4.870;2023-05-10T06:04:13;23.17;;;10.88;;
51495;SDS011;37572;52.094;4.870;2023-05-10T06:06:39;25.58;;;10.40;;
51495;SDS011;37572;52.094;4.870;2023-05-10T06:09:04;23.33;;;11.47;;
51495;SDS011;37572;52.094;4.870;2023-05-10T06:11:30;24.35;;;10.38;;
51495;SDS011;37572;52.094;4.870;2023-05-10T06:13:57;26.70;;;10.60;;
51495;SDS011;37572;52.094;4.870;2023-05-10T06:16:22;23.85;;;10.88;;
51495;SDS011;37572;52.094;4.870;2023-05-10T06:18:48;20.60;;;9.98;;
51495;SDS011;37572;52.094;4.870;2023-05-10T06:21:13;25.55;;;11.85;;
51495;SDS011;37572;52.094;4.870;2023-05-10T06:23:39;26.20;;;11.38;;
51495;SDS011;37572;52.094;4.870;2023-05-10T06:26:05;24.60;;;10.85;;
51495;SDS011;37572;52.094;4.870;2023-05-10T06:28:30;30.37;;;12.97;;
51495;SDS011;37572;52.094;4.870;2023-05-10T06:30:57;33.13;;;13.27;;
51495;SDS011;37572;52.094;4.870;2023-05-10T06:33:22;31.13;;;12.68;;
51495;SDS011;37572;52.094;4.870;2023-05-10T06:35:47;28.27;;;11.00;;
51495;SDS011;37572;52.094;4.870;2023-05-10T06:38:13;21.70;;;10.23;;
51495;SDS011;37572;52.094;4.870;2023-05-10T06:40:41;19.83;;;9.55;;
51495;SDS011;37572;52.094;4.870;2023-05-10T06:43:07;17.40;;;8.90;;
51495;SDS011;37572;52.094;4.870;2023-05-10T06:45:32;20.27;;;10.27;;
51495;SDS011;37572;52.094;4.870;2023-05-10T06:47:57;19.10;;;9.50;;
51495;SDS011;37572;52.094;4.870;2023-05-10T06:50:23;22.63;;;10.07;;
51495;SDS011;37572;52.094;4.870;2023-05-10T06:52:48;17.38;;;8.90;;
51495;SDS011;37572;52.094;4.870;2023-05-10T06:55:13;17.13;;;8.60;;
51495;SDS011;37572;52.094;4.870;2023-05-10T06:57:39;20.00;;;9.17;;
51495;SDS011;37572;52.094;4.870;2023-05-10T07:00:04;17.70;;;8.07;;
51495;SDS011;37572;52.094;4.870;2023-05-10T07:02:32;18.13;;;8.18;;
51495;SDS011;37572;52.094;4.870;2023-05-10T07:04:58;18.95;;;8.73;;
51495;SDS011;37572;52.094;4.870;2023-05-10T07:07:23;19.17;;;9.20;;
51495;SDS011;37572;52.094;4.870;2023-05-10T07:09:48;17.98;;;9.00;;
51495;SDS011;37572;52.094;4.870;2023-05-10T07:12:14;18.58;;;8.50;;
51495;SDS011;37572;52.094;4.870;2023-05-10T07:14:40;13.70;;;7.13;;
51495;SDS011;37572;52.094;4.870;2023-05-10T07:17:05;16.23;;;7.35;;
51495;SDS011;37572;52.094;4.870;2023-05-10T07:19:31;15.90;;;8.30;;
51495;SDS011;37572;52.094;4.870;2023-05-10T07:21:57;12.65;;;7.07;;
51495;SDS011;37572;52.094;4.870;2023-05-10T07:24:23;12.90;;;6.28;;
51495;SDS011;37572;52.094;4.870;2023-05-10T07:26:48;12.10;;;6.25;;
51495;SDS011;37572;52.094;4.870;2023-05-10T07:29:13;10.65;;;5.72;;
51495;SDS011;37572;52.094;4.870;2023-05-10T07:31:39;12.30;;;5.82;;
51495;SDS011;37572;52.094;4.870;2023-05-10T07:34:06;9.90;;;5.85;;
51495;SDS011;37572;52.094;4.870;2023-05-10T07:36:32;8.82;;;5.10;;
51495;SDS011;37572;52.094;4.870;2023-05-10T07:38:57;11.02;;;5.43;;
51495;SDS011;37572;52.094;4.870;2023-05-10T07:41:23;12.27;;;5.97;;
51495;SDS011;37572;52.094;4.870;2023-05-10T07:43:48;12.40;;;6.28;;
51495;SDS011;37572;52.094;4.870;2023-05-10T07:46:13;10.10;;;5.53;;
51495;SDS011;37572;52.094;4.870;2023-05-10T07:48:39;10.60;;;6.50;;
51495;SDS011;37572;52.094;4.870;2023-05-10T07:51:04;10.13;;;5.55;;
51495;SDS011;37572;52.094;4.870;2023-05-10T07:53:31;9.65;;;5.20;;
51495;SDS011;37572;52.094;4.870;2023-05-10T07:55:57;8.95;;;4.50;;
51495;SDS011;37572;52.094;4.870;2023-05-10T07:58:23;10.40;;;5.10;;
51495;SDS011;37572;52.094;4.870;2023-05-10T08:00:48;9.55;;;5.07;;
51495;SDS011;37572;52.094;4.870;2023-05-10T08:03:14;11.90;;;5.43;;
51495;SDS011;37572;52.094;4.870;2023-05-10T08:05:39;10.57;;;6.30;;
51495;SDS011;37572;52.094;4.870;2023-05-10T08:08:05;11.13;;;5.95;;
51495;SDS011;37572;52.094;4.870;2023-05-10T08:10:31;9.45;;;4.95;;
51495;SDS011;37572;52.094;4.870;2023-05-10T08:12:56;8.63;;;4.70;;
51495;SDS011;37572;52.094;4.870;2023-05-10T08:15:23;9.40;;;5.25;;
51495;SDS011;37572;52.094;4.870;2023-05-10T08:17:48;9.50;;;5.45;;
51495;SDS011;37572;52.094;4.870;2023-05-10T08:20:14;10.75;;;5.35;;
51495;SDS011;37572;52.094;4.870;2023-05-10T08:22:41;10.43;;;4.93;;
51495;SDS011;37572;52.094;4.870;2023-05-10T08:25:07;8.90;;;5.20;;
51495;SDS011;37572;52.094;4.870;2023-05-10T08:27:32;8.48;;;4.85;;
51495;SDS011;37572;52.094;4.870;2023-05-10T08:29:58;8.70;;;5.37;;
51495;SDS011;37572;52.094;4.870;2023-05-10T08:32:23;7.90;;;4.23;;
51495;SDS011;37572;52.094;4.870;2023-05-10T08:34:48;9.07;;;5.03;;
51495;SDS011;37572;52.094;4.870;2023-05-10T08:37:14;7.77;;;4.37;;
51495;SDS011;37572;52.094;4.870;2023-05-10T08:39:39;8.45;;;4.97;;
51495;SDS011;37572;52.094;4.870;2023-05-10T08:42:05;8.43;;;4.50;;
51495;SDS011;37572;52.094;4.870;2023-05-10T08:44:34;10.05;;;4.53;;
51495;SDS011;37572;52.094;4.870;2023-05-10T08:47:05;10.35;;;5.20;;
51495;SDS011;37572;52.094;4.870;2023-05-10T08:49:32;11.55;;;5.60;;
51495;SDS011;37572;52.094;4.870;2023-05-10T08:51:59;9.60;;;4.95;;
51495;SDS011;37572;52.094;4.870;2023-05-10T08:54:28;9.35;;;4.93;;
51495;SDS011;37572;52.094;4.870;2023-05-10T08:56:55;8.07;;;4.90;;
51495;SDS011;37572;52.094;4.870;2023-05-10T08:59:21;8.80;;;4.95;;
51495;SDS011;37572;52.094;4.870;2023-05-10T09:01:47;9.13;;;5.43;;
51495;SDS011;37572;52.094;4.870;2023-05-10T09:04:14;9.40;;;5.75;;
51495;SDS011;37572;52.094;4.870;2023-05-10T09:06:40;10.55;;;5.53;;
51495;SDS011;37572;52.094;4.870;2023-05-10T09:09:06;9.38;;;4.55;;
51495;SDS011;37572;52.094;4.870;2023-05-10T09:11:31;8.02;;;5.22;;
51495;SDS011;37572;52.094;4.870;2023-05-10T09:13:57;8.85;;;5.28;;
51495;SDS011;37572;52.094;4.870;2023-05-10T09:16:23;8.70;;;4.40;;
51495;SDS011;37572;52.094;4.870;2023-05-10T09:18:48;9.38;;;4.68;;
51495;SDS011;37572;52.094;4.870;2023-05-10T09:21:14;10.63;;;5.60;;
51495;SDS011;37572;52.094;4.870;2023-05-10T09:23:42;10.10;;;5.18;;
51495;SDS011;37572;52.094;4.870;2023-05-10T09:26:08;10.75;;;6.13;;
51495;SDS011;37572;52.094;4.870;2023-05-10T09:28:34;10.98;;;5.15;;
51495;SDS011;37572;52.094;4.870;2023-05-10T09:31:15;9.93;;;5.85;;
51495;SDS011;37572;52.094;4.870;2023-05-10T09:33:43;9.40;;;5.10;;
51495;SDS011;37572;52.094;4.870;2023-05-10T09:36:09;10.20;;;5.05;;
51495;SDS011;37572;52.094;4.870;2023-05-10T09:38:51;12.55;;;5.10;;
51495;SDS011;37572;52.094;4.870;2023-05-10T09:41:23;9.73;;;5.55;;
51495;SDS011;37572;52.094;4.870;2023-05-10T09:43:49;9.43;;;5.60;;
51495;SDS011;37572;52.094;4.870;2023-05-10T09:46:16;11.35;;;5.50;;
51495;SDS011;37572;52.094;4.870;2023-05-10T09:48:42;11.82;;;6.20;;
51495;SDS011;37572;52.094;4.870;2023-05-10T09:51:10;9.70;;;4.90;;
51495;SDS011;37572;52.094;4.870;2023-05-10T09:53:35;9.70;;;6.20;;
51495;SDS011;37572;52.094;4.870;2023-05-10T09:56:01;9.68;;;6.55;;
51495;SDS011;37572;52.094;4.870;2023-05-10T09:58:26;10.60;;;6.28;;
51495;SDS011;37572;52.094;4.870;2023-05-10T10:00:52;12.60;;;6.33;;
51495;SDS011;37572;52.094;4.870;2023-05-10T10:03:19;10.80;;;5.47;;
51495;SDS011;37572;52.094;4.870;2023-05-10T10:05:46;9.90;;;5.45;;
51495;SDS011;37572;52.094;4.870;2023-05-10T10:08:12;7.70;;;4.22;;
51495;SDS011;37572;52.094;4.870;2023-05-10T10:10:39;10.18;;;4.43;;
51495;SDS011;37572;52.094;4.870;2023-05-10T10:13:05;9.50;;;4.90;;
51495;SDS011;37572;52.094;4.870;2023-05-10T10:15:31;8.77;;;4.65;;
51495;SDS011;37572;52.094;4.870;2023-05-10T10:17:57;8.75;;;4.35;;
51495;SDS011;37572;52.094;4.870;2023-05-10T10:20:24;8.00;;;4.75;;
51495;SDS011;37572;52.094;4.870;2023-05-10T10:22:50;10.05;;;4.80;;
51495;SDS011;37572;52.094;4.870;2023-05-10T10:25:16;8.77;;;4.22;;
51495;SDS011;37572;52.094;4.870;2023-05-10T10:33:13;7.65;;;4.45;;
51495;SDS011;37572;52.094;4.870;2023-05-10T10:36:00;7.55;;;4.82;;
51495;SDS011;37572;52.094;4.870;2023-05-10T10:41:11;7.00;;;3.95;;
51495;SDS011;37572;52.094;4.870;2023-05-10T10:50:03;7.55;;;4.40;;
51495;SDS011;37572;52.094;4.870;2023-05-10T10:52:30;9.20;;;5.68;;
51495;SDS011;37572;52.094;4.870;2023-05-10T10:55:01;9.90;;;4.90;;
51495;SDS011;37572;52.094;4.870;2023-05-10T11:00:25;8.10;;;4.47;;
51495;SDS011;37572;52.094;4.870;2023-05-10T11:03:11;7.15;;;3.38;;
51495;SDS011;37572;52.094;4.870;2023-05-10T11:05:46;8.05;;;4.00;;
51495;SDS011;37572;52.094;4.870;2023-05-10T11:08:26;6.32;;;3.78;;
51495;SDS011;37572;52.094;4.870;2023-05-10T11:11:01;4.85;;;2.92;;
51495;SDS011;37572;52.094;4.870;2023-05-10T11:15:58;6.55;;;3.55;;
51495;SDS011;37572;52.094;4.870;2023-05-10T11:18:36;6.40;;;3.38;;
51495;SDS011;37572;52.094;4.870;2023-05-10T11:21:01;5.38;;;3.33;;
51495;SDS011;37572;52.094;4.870;2023-05-10T11:23:31;5.57;;;3.47;;
51495;SDS011;37572;52.094;4.870;2023-05-10T11:26:12;6.85;;;4.18;;
51495;SDS011;37572;52.094;4.870;2023-05-10T11:28:41;7.75;;;4.47;;
51495;SDS011;37572;52.094;4.870;2023-05-10T11:31:13;9.73;;;6.22;;
51495;SDS011;37572;52.094;4.870;2023-05-10T11:33:45;10.93;;;6.25;;
51495;SDS011;37572;52.094;4.870;2023-05-10T11:36:24;9.90;;;6.10;;
51495;SDS011;37572;52.094;4.870;2023-05-10T11:38:52;12.45;;;6.28;;
51495;SDS011;37572;52.094;4.870;2023-05-10T11:41:18;11.15;;;6.18;;
51495;SDS011;37572;52.094;4.870;2023-05-10T11:43:47;11.07;;;5.90;;
51495;SDS011;37572;52.094;4.870;2023-05-10T11:46:14;11.95;;;7.07;;
51495;SDS011;37572;52.094;4.870;2023-05-10T11:48:41;12.65;;;7.10;;
51495;SDS011;37572;52.094;4.870;2023-05-10T11:51:07;12.60;;;7.20;;
51495;SDS011;37572;52.094;4.870;2023-05-10T11:53:33;14.13;;;7.43;;
51495;SDS011;37572;52.094;4.870;2023-05-10T11:56:02;15.43;;;8.60;;
51495;SDS011;37572;52.094;4.870;2023-05-10T11:58:30;16.65;;;9.02;;
51495;SDS011;37572;52.094;4.870;2023-05-10T12:00:57;15.00;;;8.27;;
51495;SDS011;37572;52.094;4.870;2023-05-10T12:03:24;16.23;;;9.02;;
51495;SDS011;37572;52.094;4.870;2023-05-10T12:05:49;16.40;;;7.88;;
51495;SDS011;37572;52.094;4.870;2023-05-10T12:08:15;21.45;;;9.40;;
51495;SDS011;37572;52.094;4.870;2023-05-10T12:10:45;19.67;;;8.52;;
51495;SDS011;37572;52.094;4.870;2023-05-10T12:13:10;21.07;;;8.87;;
51495;SDS011;37572;52.094;4.870;2023-05-10T12:15:40;16.02;;;8.50;;
51495;SDS011;37572;52.094;4.870;2023-05-10T12:18:07;17.20;;;9.13;;
51495;SDS011;37572;52.094;4.870;2023-05-10T12:20:35;16.30;;;8.15;;
51495;SDS011;37572;52.094;4.870;2023-05-10T12:23:01;18.20;;;8.32;;
51495;SDS011;37572;52.094;4.870;2023-05-10T12:25:32;17.63;;;8.23;;
51495;SDS011;37572;52.094;4.870;2023-05-10T12:27:59;13.35;;;7.32;;
51495;SDS011;37572;52.094;4.870;2023-05-10T12:30:27;14.70;;;7.43;;
51495;SDS011;37572;52.094;4.870;2023-05-10T12:32:53;11.07;;;6.43;;
51495;SDS011;37572;52.094;4.870;2023-05-10T12:35:24;11.70;;;6.05;;
51495;SDS011;37572;52.094;4.870;2023-05-10T12:37:52;11.10;;;6.47;;
51495;SDS011;37572;52.094;4.870;2023-05-10T12:40:18;13.70;;;6.93;;
51495;SDS011;37572;52.094;4.870;2023-05-10T12:42:43;10.10;;;5.82;;
51495;SDS011;37572;52.094;4.870;2023-05-10T12:45:12;12.63;;;6.55;;
51495;SDS011;37572;52.094;4.870;2023-05-10T12:47:37;11.77;;;6.25;;
51495;SDS011;37572;52.094;4.870;2023-05-10T12:50:03;11.20;;;5.63;;
51495;SDS011;37572;52.094;4.870;2023-05-10T12:52:28;10.90;;;5.90;;
51495;SDS011;37572;52.094;4.870;2023-05-10T12:54:55;9.80;;;5.07;;
51495;SDS011;37572;52.094;4.870;2023-05-10T12:57:20;11.18;;;5.70;;
51495;SDS011;37572;52.094;4.870;2023-05-10T12:59:46;11.35;;;5.45;;
51495;SDS011;37572;52.094;4.870;2023-05-10T13:02:11;10.40;;;5.85;;
51495;SDS011;37572;52.094;4.870;2023-05-10T13:04:37;9.48;;;5.13;;
51495;SDS011;37572;52.094;4.870;2023-05-10T13:07:05;10.07;;;5.40;;
51495;SDS011;37572;52.094;4.870;2023-05-10T13:09:33;11.65;;;6.75;;
51495;SDS011;37572;52.094;4.870;2023-05-10T13:11:58;12.20;;;6.03;;
51495;SDS011;37572;52.094;4.870;2023-05-10T13:14:24;11.65;;;6.18;;
51495;SDS011;37572;52.094;4.870;2023-05-10T13:16:49;12.25;;;6.50;;
51495;SDS011;37572;52.094;4.870;2023-05-10T13:19:15;11.00;;;6.07;;
51495;SDS011;37572;52.094;4.870;2023-05-10T13:21:41;10.73;;;5.78;;
51495;SDS011;37572;52.094;4.870;2023-05-10T13:24:07;10.25;;;5.93;;
51495;SDS011;37572;52.094;4.870;2023-05-10T13:26:33;9.95;;;5.90;;
51495;SDS011;37572;52.094;4.870;2023-05-10T13:28:58;11.70;;;6.28;;
51495;SDS011;37572;52.094;4.870;2023-05-10T13:31:24;10.82;;;6.05;;
51495;SDS011;37572;52.094;4.870;2023-05-10T13:33:49;10.48;;;6.13;;
51495;SDS011;37572;52.094;4.870;2023-05-10T13:36:14;9.75;;;6.22;;
51495;SDS011;37572;52.094;4.870;2023-05-10T13:38:40;8.32;;;5.28;;
51495;SDS011;37572;52.094;4.870;2023-05-10T13:41:05;11.97;;;6.03;;
51495;SDS011;37572;52.094;4.870;2023-05-10T13:43:30;9.70;;;5.83;;
51495;SDS011;37572;52.094;4.870;2023-05-10T13:45:56;8.82;;;5.68;;
51495;SDS011;37572;52.094;4.870;2023-05-10T13:48:21;9.55;;;5.53;;
51495;SDS011;37572;52.094;4.870;2023-05-10T13:50:47;10.27;;;5.78;;
51495;SDS011;37572;52.094;4.870;2023-05-10T13:53:12;12.57;;;5.60;;
51495;SDS011;37572;52.094;4.870;2023-05-10T13:55:37;11.25;;;5.93;;
51495;SDS011;37572;52.094;4.870;2023-05-10T13:58:03;11.63;;;6.55;;
51495;SDS011;37572;52.094;4.870;2023-05-10T14:00:28;11.55;;;6.55;;
51495;SDS011;37572;52.094;4.870;2023-05-10T14:02:54;12.43;;;6.93;;
51495;SDS011;37572;52.094;4.870;2023-05-10T14:05:19;13.43;;;6.83;;
51495;SDS011;37572;52.094;4.870;2023-05-10T14:07:45;12.90;;;6.78;;
51495;SDS011;37572;52.094;4.870;2023-05-10T14:10:10;11.38;;;6.53;;
51495;SDS011;37572;52.094;4.870;2023-05-10T14:12:35;15.95;;;7.88;;
51495;SDS011;37572;52.094;4.870;2023-05-10T14:15:01;12.82;;;6.80;;
51495;SDS011;37572;52.094;4.870;2023-05-10T14:17:27;14.90;;;7.07;;
51495;SDS011;37572;52.094;4.870;2023-05-10T14:19:52;12.20;;;7.75;;
51495;SDS011;37572;52.094;4.870;2023-05-10T14:22:18;12.48;;;6.93;;
51495;SDS011;37572;52.094;4.870;2023-05-10T14:24:43;13.38;;;6.95;;
51495;SDS011;37572;52.094;4.870;2023-05-10T14:27:11;17.20;;;7.57;;
51495;SDS011;37572;52.094;4.870;2023-05-10T14:29:37;14.60;;;6.63;;
51495;SDS011;37572;52.094;4.870;2023-05-10T14:32:02;14.27;;;8.38;;
51495;SDS011;37572;52.094;4.870;2023-05-10T14:34:28;16.25;;;7.97;;
51495;SDS011;37572;52.094;4.870;2023-05-10T14:36:53;11.70;;;6.72;;
51495;SDS011;37572;52.094;4.870;2023-05-10T14:39:19;11.23;;;5.70;;
51495;SDS011;37572;52.094;4.870;2023-05-10T14:41:44;9.15;;;5.03;;
51495;SDS011;37572;52.094;4.870;2023-05-10T14:44:10;9.20;;;5.35;;
51495;SDS011;37572;52.094;4.870;2023-05-10T14:46:36;9.68;;;5.22;;
51495;SDS011;37572;52.094;4.870;2023-05-10T14:49:02;9.88;;;5.57;;
51495;SDS011;37572;52.094;4.870;2023-05-10T14:51:27;9.50;;;5.57;;
51495;SDS011;37572;52.094;4.870;2023-05-10T14:53:52;9.13;;;5.68;;
51495;SDS011;37572;52.094;4.870;2023-05-10T14:56:18;11.47;;;5.87;;
51495;SDS011;37572;52.094;4.870;2023-05-10T14:58:43;15.27;;;7.70;;
51495;SDS011;37572;52.094;4.870;2023-05-10T15:01:08;12.02;;;6.78;;